Thunder radar more information blitzortung!


Radar de pluja more information rain snow radar


Visita la nostra xarxa de llocs de meteo:

Template documentation
and downloads

And another site



No particular awareness of the weather is required.    There are no Weather-warnings

Pagina Historial Weather Underground text

Diari Resum Juliol 11, 2017 Unitats:  Tant    Imperial   Mètric
« Previous Dia
SegĂźent Dia »
Diari Setmana Mensual Anual Personalitzada
  Maxima: Minima: Media:
Temperatura: 90.9 °F /  32.7 °C 69.8 °F /  21.0 °C 81.7 °F /  27.6 °C
Punt de rosada: 68.7 °F /  20.4 °C 59.7 °F /  15.4 °C 65.7 °F /  18.7 °C
Humitat: 80 % 46 % 60 %
Wind Speed: 13.8 mph /  22.2 km/h - 5 mph /  8.1 km/h
RĂ fegues de vent: 13.8 mph /  22.2 km/h - -
Vent:- - SE
Pression baro: 30 in /  1015.8 hPa 29.8 in /  1010.7 hPa -
Precipitacions: 0 in /  0.0 mm    
Historical Graphs
 
 
Dades de taula per Juliol 11, 2017
Temps Temperatura Punt de rosada Pression baro Vent Wind Speed RĂ fegues de vent Humitat Rainfall Rate (Hourly)
00:00 74.5 °F /  23.6 °C 59.7 °F /  15.4 °C 29.9 in /  1013.8 hPa East 2.3 mph /  3.7 km/h 2.3 mph /  3.7 km/h 60 % 0 in /  0.0 mm
00:05 74.3 °F /  23.5 °C 60.1 °F /  15.6 °C 29.9 in /  1013.8 hPa ESE 2.3 mph /  3.7 km/h 2.3 mph /  3.7 km/h 61 % 0 in /  0.0 mm
00:10 70.9 °F /  21.6 °C 63.7 °F /  17.6 °C 29.9 in /  1013.8 hPa NE 2 mph /  3.2 km/h 3 mph /  4.8 km/h 78 % 0 in /  0.0 mm
00:20 70.9 °F /  21.6 °C 63.7 °F /  17.6 °C 29.9 in /  1013.8 hPa NE 1 mph /  1.6 km/h 3 mph /  4.8 km/h 78 % 0 in /  0.0 mm
00:30 70.7 °F /  21.5 °C 63.5 °F /  17.5 °C 29.9 in /  1013.8 hPa NE 2 mph /  3.2 km/h 2 mph /  3.2 km/h 78 % 0 in /  0.0 mm
00:40 70.5 °F /  21.4 °C 63.3 °F /  17.4 °C 29.9 in /  1013.8 hPa Calm   3 mph /  4.8 km/h 78 % 0 in /  0.0 mm
00:50 70.3 °F /  21.3 °C 63.1 °F /  17.3 °C 29.9 in /  1013.8 hPa Calm   1 mph /  1.6 km/h 78 % 0 in /  0.0 mm
01:00 70.2 °F /  21.2 °C 63 °F /  17.2 °C 29.9 in /  1013.8 hPa Calm   1 mph /  1.6 km/h 78 % 0 in /  0.0 mm
01:10 70 °F /  21.1 °C 62.8 °F /  17.1 °C 29.9 in /  1013.8 hPa NE 1 mph /  1.6 km/h   78 % 0 in /  0.0 mm
01:20 70 °F /  21.1 °C 63.1 °F /  17.3 °C 29.9 in /  1013.8 hPa ENE 1 mph /  1.6 km/h 2 mph /  3.2 km/h 79 % 0 in /  0.0 mm
01:30 70 °F /  21.1 °C 62.8 °F /  17.1 °C 29.9 in /  1013.8 hPa NE 1 mph /  1.6 km/h 1 mph /  1.6 km/h 78 % 0 in /  0.0 mm
01:40 70 °F /  21.1 °C 62.8 °F /  17.1 °C 29.9 in /  1013.8 hPa Calm   1 mph /  1.6 km/h 78 % 0 in /  0.0 mm
01:50 69.8 °F /  21.0 °C 62.6 °F /  17.0 °C 29.9 in /  1013.8 hPa Calm   1 mph /  1.6 km/h 78 % 0 in /  0.0 mm
02:00 70 °F /  21.1 °C 62.8 °F /  17.1 °C 29.9 in /  1013.8 hPa NE 1 mph /  1.6 km/h 2 mph /  3.2 km/h 78 % 0 in /  0.0 mm
02:10 69.8 °F /  21.0 °C 62.6 °F /  17.0 °C 29.9 in /  1013.8 hPa NE 2 mph /  3.2 km/h 2 mph /  3.2 km/h 78 % 0 in /  0.0 mm
02:20 70 °F /  21.1 °C 62.8 °F /  17.1 °C 29.9 in /  1013.8 hPa NE 1 mph /  1.6 km/h 2 mph /  3.2 km/h 78 % 0 in /  0.0 mm
02:30 70.3 °F /  21.3 °C 63.1 °F /  17.3 °C 29.9 in /  1012.8 hPa Calm     78 % 0 in /  0.0 mm
02:40 70.5 °F /  21.4 °C 63 °F /  17.2 °C 29.9 in /  1012.8 hPa Calm     77 % 0 in /  0.0 mm
02:50 70.5 °F /  21.4 °C 62.6 °F /  17.0 °C 29.9 in /  1012.8 hPa NE 1 mph /  1.6 km/h 2 mph /  3.2 km/h 76 % 0 in /  0.0 mm
03:00 71.6 °F /  22.0 °C 63.7 °F /  17.6 °C 29.9 in /  1012.8 hPa Calm     76 % 0 in /  0.0 mm
03:10 72.3 °F /  22.4 °C 63.9 °F /  17.7 °C 29.9 in /  1012.8 hPa NE 1 mph /  1.6 km/h 1 mph /  1.6 km/h 75 % 0 in /  0.0 mm
03:20 72.9 °F /  22.7 °C 64 °F /  17.8 °C 29.9 in /  1013.8 hPa ENE 1 mph /  1.6 km/h 1 mph /  1.6 km/h 74 % 0 in /  0.0 mm
03:30 74.1 °F /  23.4 °C 64.9 °F /  18.3 °C 29.9 in /  1013.8 hPa ESE 1 mph /  1.6 km/h 2 mph /  3.2 km/h 73 % 0 in /  0.0 mm
03:40 75 °F /  23.9 °C 65.5 °F /  18.6 °C 29.9 in /  1013.8 hPa East 3 mph /  4.8 km/h 3 mph /  4.8 km/h 72 % 0 in /  0.0 mm
03:50 75.4 °F /  24.1 °C 64.6 °F /  18.1 °C 29.9 in /  1013.8 hPa NE 1 mph /  1.6 km/h 3 mph /  4.8 km/h 69 % 0 in /  0.0 mm
04:00 75.4 °F /  24.1 °C 64 °F /  17.8 °C 29.9 in /  1013.8 hPa NNE 2 mph /  3.2 km/h 4 mph /  6.4 km/h 68 % 0 in /  0.0 mm
04:10 75.4 °F /  24.1 °C 63.7 °F /  17.6 °C 29.9 in /  1013.8 hPa NE 1 mph /  1.6 km/h 4 mph /  6.4 km/h 67 % 0 in /  0.0 mm
04:20 76.3 °F /  24.6 °C 64.9 °F /  18.3 °C 29.9 in /  1013.8 hPa NE 1 mph /  1.6 km/h 3 mph /  4.8 km/h 68 % 0 in /  0.0 mm
04:30 75 °F /  23.9 °C 63.7 °F /  17.6 °C 29.9 in /  1013.8 hPa Calm   4 mph /  6.4 km/h 68 % 0 in /  0.0 mm
04:40 75 °F /  23.9 °C 63.7 °F /  17.6 °C 29.9 in /  1013.8 hPa NNE 2 mph /  3.2 km/h 3 mph /  4.8 km/h 68 % 0 in /  0.0 mm
04:50 76.3 °F /  24.6 °C 64.6 °F /  18.1 °C 29.9 in /  1013.8 hPa NNE 1 mph /  1.6 km/h 2 mph /  3.2 km/h 67 % 0 in /  0.0 mm
05:00 75.7 °F /  24.3 °C 63.7 °F /  17.6 °C 29.9 in /  1013.8 hPa NNE 1 mph /  1.6 km/h 3 mph /  4.8 km/h 66 % 0 in /  0.0 mm
05:10 77 °F /  25.0 °C 63.9 °F /  17.7 °C 29.9 in /  1013.8 hPa NE 1 mph /  1.6 km/h 4 mph /  6.4 km/h 64 % 0 in /  0.0 mm
05:20 78.1 °F /  25.6 °C 64.9 °F /  18.3 °C 29.9 in /  1013.8 hPa NNE 1 mph /  1.6 km/h 2 mph /  3.2 km/h 64 % 0 in /  0.0 mm
10:27 79 °F /  26.1 °C 65.3 °F /  18.5 °C 29.9 in /  1013.8 hPa SW 2.3 mph /  3.7 km/h 2.3 mph /  3.7 km/h 63 % 0 in /  0.0 mm
10:28 79 °F /  26.1 °C 65.3 °F /  18.5 °C 29.9 in /  1013.8 hPa SSW 2.3 mph /  3.7 km/h 2.3 mph /  3.7 km/h 63 % 0 in /  0.0 mm
10:33 79.5 °F /  26.4 °C 65.5 °F /  18.6 °C 29.9 in /  1013.8 hPa ENE 2.3 mph /  3.7 km/h 2.3 mph /  3.7 km/h 62 % 0 in /  0.0 mm
10:38 79 °F /  26.1 °C 64.8 °F /  18.2 °C 29.9 in /  1013.8 hPa ENE 2.3 mph /  3.7 km/h 2.3 mph /  3.7 km/h 62 % 0 in /  0.0 mm
10:43 79 °F /  26.1 °C 64.8 °F /  18.2 °C 29.9 in /  1013.8 hPa NE 2.3 mph /  3.7 km/h 2.4 mph /  3.9 km/h 62 % 0 in /  0.0 mm
10:48 78.4 °F /  25.8 °C 64.2 °F /  17.9 °C 29.9 in /  1013.8 hPa ESE 2.3 mph /  3.7 km/h 2.6 mph /  4.2 km/h 62 % 0 in /  0.0 mm
10:53 79.2 °F /  26.2 °C 64.9 °F /  18.3 °C 29.9 in /  1012.8 hPa SSE 2.3 mph /  3.7 km/h 2.3 mph /  3.7 km/h 62 % 0 in /  0.0 mm
10:58 81 °F /  27.2 °C 65.3 °F /  18.5 °C 29.9 in /  1012.8 hPa SW 1.6 mph /  2.6 km/h 1.6 mph /  2.6 km/h 59 % 0 in /  0.0 mm
11:03 81.9 °F /  27.7 °C 65.7 °F /  18.7 °C 29.9 in /  1012.8 hPa ESE 2.3 mph /  3.7 km/h 2.3 mph /  3.7 km/h 58 % 0 in /  0.0 mm
11:08 81.5 °F /  27.5 °C 65.3 °F /  18.5 °C 29.9 in /  1012.8 hPa ENE 1.6 mph /  2.6 km/h 1.6 mph /  2.6 km/h 58 % 0 in /  0.0 mm
11:13 82 °F /  27.8 °C 65.8 °F /  18.8 °C 29.9 in /  1012.8 hPa ESE 2.3 mph /  3.7 km/h 2.3 mph /  3.7 km/h 58 % 0 in /  0.0 mm
11:18 82.9 °F /  28.3 °C 65.7 °F /  18.7 °C 29.9 in /  1012.8 hPa South 3.5 mph /  5.6 km/h 3.5 mph /  5.6 km/h 56 % 0 in /  0.0 mm
11:23 83.1 °F /  28.4 °C 65.3 °F /  18.5 °C 29.9 in /  1013.8 hPa SSE 2.4 mph /  3.9 km/h 2.4 mph /  3.9 km/h 55 % 0 in /  0.0 mm
11:28 83.3 °F /  28.5 °C 66 °F /  18.9 °C 29.9 in /  1013.8 hPa NE 3.5 mph /  5.6 km/h 3.5 mph /  5.6 km/h 56 % 0 in /  0.0 mm
11:33 82 °F /  27.8 °C 64.2 °F /  17.9 °C 29.9 in /  1013.8 hPa NE 2.3 mph /  3.7 km/h 2.3 mph /  3.7 km/h 55 % 0 in /  0.0 mm
11:38 82.2 °F /  27.9 °C 64.9 °F /  18.3 °C 29.9 in /  1013.8 hPa NW 2.9 mph /  4.7 km/h 2.9 mph /  4.7 km/h 56 % 0 in /  0.0 mm
11:43 83.3 °F /  28.5 °C 65.5 °F /  18.6 °C 29.9 in /  1013.8 hPa SE 2.3 mph /  3.7 km/h 2.3 mph /  3.7 km/h 55 % 0 in /  0.0 mm
11:48 84.2 °F /  29.0 °C 65.1 °F /  18.4 °C 29.9 in /  1013.8 hPa ENE 3.5 mph /  5.6 km/h 3.5 mph /  5.6 km/h 53 % 0 in /  0.0 mm
11:53 85.1 °F /  29.5 °C 66 °F /  18.9 °C 29.9 in /  1013.8 hPa ESE 2.6 mph /  4.2 km/h 2.6 mph /  4.2 km/h 53 % 0 in /  0.0 mm
11:58 84.4 °F /  29.1 °C 64.2 °F /  17.9 °C 29.9 in /  1013.8 hPa ESE 4.6 mph /  7.4 km/h 4.6 mph /  7.4 km/h 51 % 0 in /  0.0 mm
12:03 85.1 °F /  29.5 °C 64.9 °F /  18.3 °C 29.9 in /  1013.8 hPa SSE 5.8 mph /  9.3 km/h 5.8 mph /  9.3 km/h 51 % 0 in /  0.0 mm
12:08 85.6 °F /  29.8 °C 65.5 °F /  18.6 °C 29.9 in /  1013.8 hPa East 4.6 mph /  7.4 km/h 4.6 mph /  7.4 km/h 51 % 0 in /  0.0 mm
12:13 86.5 °F /  30.3 °C 66.7 °F /  19.3 °C 29.9 in /  1013.8 hPa SE 3.5 mph /  5.6 km/h 3.5 mph /  5.6 km/h 52 % 0 in /  0.0 mm
12:18 87.1 °F /  30.6 °C 66.2 °F /  19.0 °C 29.9 in /  1013.8 hPa East 3.3 mph /  5.3 km/h 3.3 mph /  5.3 km/h 50 % 0 in /  0.0 mm
12:23 86.4 °F /  30.2 °C 65.5 °F /  18.6 °C 29.9 in /  1013.8 hPa SW 3.6 mph /  5.8 km/h 3.6 mph /  5.8 km/h 50 % 0 in /  0.0 mm
12:28 86.2 °F /  30.1 °C 64.8 °F /  18.2 °C 29.9 in /  1013.8 hPa ESE 6 mph /  9.7 km/h 6 mph /  9.7 km/h 49 % 0 in /  0.0 mm
12:33 86 °F /  30.0 °C 64.6 °F /  18.1 °C 29.9 in /  1013.8 hPa SSE 5.8 mph /  9.3 km/h 5.8 mph /  9.3 km/h 49 % 0 in /  0.0 mm
12:38 87.1 °F /  30.6 °C 64.9 °F /  18.3 °C 29.9 in /  1013.8 hPa South 4.6 mph /  7.4 km/h 4.6 mph /  7.4 km/h 48 % 0 in /  0.0 mm
12:43 87.8 °F /  31.0 °C 65.7 °F /  18.7 °C 29.9 in /  1013.8 hPa East 2.4 mph /  3.9 km/h 2.4 mph /  3.9 km/h 48 % 0 in /  0.0 mm
12:48 86.7 °F /  30.4 °C 64.8 °F /  18.2 °C 29.9 in /  1013.8 hPa ESE 4.6 mph /  7.4 km/h 4.6 mph /  7.4 km/h 48 % 0 in /  0.0 mm
12:53 86.5 °F /  30.3 °C 65.1 °F /  18.4 °C 29.9 in /  1013.8 hPa East 6 mph /  9.7 km/h 6 mph /  9.7 km/h 49 % 0 in /  0.0 mm
12:58 86.5 °F /  30.3 °C 64.6 °F /  18.1 °C 29.9 in /  1013.8 hPa East 4.6 mph /  7.4 km/h 4.6 mph /  7.4 km/h 48 % 0 in /  0.0 mm
13:03 87.8 °F /  31.0 °C 65.1 °F /  18.4 °C 29.9 in /  1013.8 hPa ESE 3.5 mph /  5.6 km/h 3.5 mph /  5.6 km/h 47 % 0 in /  0.0 mm
13:08 87.6 °F /  30.9 °C 66 °F /  18.9 °C 29.9 in /  1012.8 hPa ESE 9.2 mph /  14.8 km/h 9.2 mph /  14.8 km/h 49 % 0 in /  0.0 mm
13:13 85.8 °F /  29.9 °C 64.6 °F /  18.1 °C 29.9 in /  1012.8 hPa ESE 10.4 mph /  16.7 km/h 10.4 mph /  16.7 km/h 49 % 0 in /  0.0 mm
13:18 84.9 °F /  29.4 °C 64.2 °F /  17.9 °C 29.9 in /  1012.8 hPa NNE 6.9 mph /  11.1 km/h 6.9 mph /  11.1 km/h 50 % 0 in /  0.0 mm
13:23 84.6 °F /  29.2 °C 64.4 °F /  18.0 °C 29.9 in /  1012.8 hPa SE 9.2 mph /  14.8 km/h 9.2 mph /  14.8 km/h 51 % 0 in /  0.0 mm
13:28 84.4 °F /  29.1 °C 64.2 °F /  17.9 °C 29.9 in /  1012.8 hPa SE 10 mph /  16.1 km/h 10 mph /  16.1 km/h 51 % 0 in /  0.0 mm
13:33 84.4 °F /  29.1 °C 64.2 °F /  17.9 °C 29.9 in /  1012.8 hPa SE 11.5 mph /  18.5 km/h 11.5 mph /  18.5 km/h 51 % 0 in /  0.0 mm
13:38 84.4 °F /  29.1 °C 64.2 °F /  17.9 °C 29.9 in /  1013.8 hPa East 10 mph /  16.1 km/h 10 mph /  16.1 km/h 51 % 0 in /  0.0 mm
13:43 84.6 °F /  29.2 °C 64.9 °F /  18.3 °C 29.9 in /  1013.8 hPa ESE 9.2 mph /  14.8 km/h 9.2 mph /  14.8 km/h 52 % 0 in /  0.0 mm
13:48 84.6 °F /  29.2 °C 64.4 °F /  18.0 °C 29.9 in /  1013.8 hPa NNE 5.8 mph /  9.3 km/h 5.8 mph /  9.3 km/h 51 % 0 in /  0.0 mm
13:53 84.4 °F /  29.1 °C 64.8 °F /  18.2 °C 29.9 in /  1013.8 hPa ESE 8.1 mph /  13.0 km/h 8.1 mph /  13.0 km/h 52 % 0 in /  0.0 mm
13:58 84.7 °F /  29.3 °C 65.1 °F /  18.4 °C 29.9 in /  1013.8 hPa East 10.4 mph /  16.7 km/h 10.4 mph /  16.7 km/h 52 % 0 in /  0.0 mm
14:03 85.8 °F /  29.9 °C 66.2 °F /  19.0 °C 29.9 in /  1013.8 hPa ESE 5.6 mph /  9.0 km/h 5.6 mph /  9.0 km/h 52 % 0 in /  0.0 mm
14:08 85.3 °F /  29.6 °C 65.1 °F /  18.4 °C 29.9 in /  1013.8 hPa East 9.2 mph /  14.8 km/h 9.2 mph /  14.8 km/h 51 % 0 in /  0.0 mm
14:13 85.8 °F /  29.9 °C 65.7 °F /  18.7 °C 29.9 in /  1013.8 hPa ESE 5.8 mph /  9.3 km/h 5.8 mph /  9.3 km/h 51 % 0 in /  0.0 mm
14:18 84.9 °F /  29.4 °C 64.8 °F /  18.2 °C 29.9 in /  1013.8 hPa ESE 10.7 mph /  17.2 km/h 10.7 mph /  17.2 km/h 51 % 0 in /  0.0 mm
14:23 85.1 °F /  29.5 °C 64.9 °F /  18.3 °C 29.9 in /  1013.8 hPa ESE 10.4 mph /  16.7 km/h 10.4 mph /  16.7 km/h 51 % 0 in /  0.0 mm
14:28 85.5 °F /  29.7 °C 65.3 °F /  18.5 °C 29.9 in /  1013.8 hPa East 8.1 mph /  13.0 km/h 8.1 mph /  13.0 km/h 51 % 0 in /  0.0 mm
14:33 85.6 °F /  29.8 °C 65.5 °F /  18.6 °C 29.9 in /  1013.8 hPa ESE 9.2 mph /  14.8 km/h 9.2 mph /  14.8 km/h 51 % 0 in /  0.0 mm
14:38 85.5 °F /  29.7 °C 65.3 °F /  18.5 °C 29.9 in /  1013.8 hPa ESE 9.2 mph /  14.8 km/h 9.2 mph /  14.8 km/h 51 % 0 in /  0.0 mm
14:43 85.6 °F /  29.8 °C 65.5 °F /  18.6 °C 29.9 in /  1013.8 hPa ESE 8.1 mph /  13.0 km/h 8.1 mph /  13.0 km/h 51 % 0 in /  0.0 mm
14:48 85.3 °F /  29.6 °C 65.1 °F /  18.4 °C 29.9 in /  1013.8 hPa ENE 9.2 mph /  14.8 km/h 9.2 mph /  14.8 km/h 51 % 0 in /  0.0 mm
14:53 85.3 °F /  29.6 °C 65.1 °F /  18.4 °C 29.9 in /  1013.8 hPa SE 6.9 mph /  11.1 km/h 6.9 mph /  11.1 km/h 51 % 0 in /  0.0 mm
14:58 84.9 °F /  29.4 °C 64.8 °F /  18.2 °C 29.9 in /  1013.8 hPa ESE 8.1 mph /  13.0 km/h 8.1 mph /  13.0 km/h 51 % 0 in /  0.0 mm
15:03 86 °F /  30.0 °C 65.8 °F /  18.8 °C 29.9 in /  1013.8 hPa ENE 8.7 mph /  14.0 km/h 8.7 mph /  14.0 km/h 51 % 0 in /  0.0 mm
15:08 85.6 °F /  29.8 °C 65.5 °F /  18.6 °C 29.9 in /  1012.8 hPa ESE 8.1 mph /  13.0 km/h 8.1 mph /  13.0 km/h 51 % 0 in /  0.0 mm
15:13 84.9 °F /  29.4 °C 65.3 °F /  18.5 °C 29.9 in /  1012.8 hPa ESE 11.5 mph /  18.5 km/h 11.5 mph /  18.5 km/h 52 % 0 in /  0.0 mm
15:18 85.5 °F /  29.7 °C 65.8 °F /  18.8 °C 29.9 in /  1012.8 hPa South 9.2 mph /  14.8 km/h 9.2 mph /  14.8 km/h 52 % 0 in /  0.0 mm
15:23 87.3 °F /  30.7 °C 67.5 °F /  19.7 °C 29.9 in /  1012.8 hPa SE 5.8 mph /  9.3 km/h 5.8 mph /  9.3 km/h 52 % 0 in /  0.0 mm
15:28 87.3 °F /  30.7 °C 66.4 °F /  19.1 °C 29.9 in /  1012.8 hPa South 3.5 mph /  5.6 km/h 4.3 mph /  6.9 km/h 50 % 0 in /  0.0 mm
15:33 86.9 °F /  30.5 °C 66 °F /  18.9 °C 29.9 in /  1012.8 hPa ESE 13.8 mph /  22.2 km/h 13.8 mph /  22.2 km/h 50 % 0 in /  0.0 mm
15:38 86.9 °F /  30.5 °C 66.6 °F /  19.2 °C 29.9 in /  1013.8 hPa SSE 7.4 mph /  11.9 km/h 7.4 mph /  11.9 km/h 51 % 0 in /  0.0 mm
15:43 85.6 °F /  29.8 °C 65.5 °F /  18.6 °C 29.9 in /  1013.8 hPa ESE 11.5 mph /  18.5 km/h 11.5 mph /  18.5 km/h 51 % 0 in /  0.0 mm
15:48 86.4 °F /  30.2 °C 66 °F /  18.9 °C 29.9 in /  1013.8 hPa East 6.4 mph /  10.3 km/h 6.4 mph /  10.3 km/h 51 % 0 in /  0.0 mm
15:53 86.7 °F /  30.4 °C 66.4 °F /  19.1 °C 29.9 in /  1013.8 hPa East 5.8 mph /  9.3 km/h 5.8 mph /  9.3 km/h 51 % 0 in /  0.0 mm
15:58 87.6 °F /  30.9 °C 66.7 °F /  19.3 °C 29.9 in /  1013.8 hPa ENE 4.6 mph /  7.4 km/h 4.6 mph /  7.4 km/h 50 % 0 in /  0.0 mm
16:03 88.5 °F /  31.4 °C 66.4 °F /  19.1 °C 29.9 in /  1013.8 hPa ESE 6.4 mph /  10.3 km/h 6.4 mph /  10.3 km/h 48 % 0 in /  0.0 mm
16:08 86.9 °F /  30.5 °C 66 °F /  18.9 °C 29.9 in /  1012.8 hPa East 7.8 mph /  12.6 km/h 7.8 mph /  12.6 km/h 50 % 0 in /  0.0 mm
16:13 86.7 °F /  30.4 °C 65.8 °F /  18.8 °C 29.9 in /  1012.8 hPa South 6.9 mph /  11.1 km/h 6.9 mph /  11.1 km/h 50 % 0 in /  0.0 mm
16:18 88.3 °F /  31.3 °C 66.2 °F /  19.0 °C 29.9 in /  1012.8 hPa East 8.1 mph /  13.0 km/h 8.1 mph /  13.0 km/h 48 % 0 in /  0.0 mm
16:23 88.9 °F /  31.6 °C 66 °F /  18.9 °C 29.9 in /  1012.8 hPa South 3.6 mph /  5.8 km/h 3.6 mph /  5.8 km/h 47 % 0 in /  0.0 mm
16:28 87.8 °F /  31.0 °C 66.4 °F /  19.1 °C 29.9 in /  1012.8 hPa South 3.5 mph /  5.6 km/h 3.5 mph /  5.6 km/h 49 % 0 in /  0.0 mm
16:33 88.3 °F /  31.3 °C 66.2 °F /  19.0 °C 29.9 in /  1012.8 hPa ENE 3.5 mph /  5.6 km/h 3.5 mph /  5.6 km/h 48 % 0 in /  0.0 mm
16:38 87.3 °F /  30.7 °C 65.8 °F /  18.8 °C 29.9 in /  1012.8 hPa South 6.9 mph /  11.1 km/h 6.9 mph /  11.1 km/h 49 % 0 in /  0.0 mm
16:43 88.2 °F /  31.2 °C 66.6 °F /  19.2 °C 29.9 in /  1012.8 hPa East 4.6 mph /  7.4 km/h 4.6 mph /  7.4 km/h 49 % 0 in /  0.0 mm
16:48 88.5 °F /  31.4 °C 66.4 °F /  19.1 °C 29.9 in /  1012.8 hPa South 5.8 mph /  9.3 km/h 5.8 mph /  9.3 km/h 48 % 0 in /  0.0 mm
16:53 88.7 °F /  31.5 °C 66.6 °F /  19.2 °C 29.9 in /  1012.8 hPa South 4.6 mph /  7.4 km/h 4.6 mph /  7.4 km/h 48 % 0 in /  0.0 mm
16:58 88.9 °F /  31.6 °C 66.7 °F /  19.3 °C 29.9 in /  1012.8 hPa SSE 5.6 mph /  9.0 km/h 5.6 mph /  9.0 km/h 48 % 0 in /  0.0 mm
17:03 88.7 °F /  31.5 °C 66.6 °F /  19.2 °C 29.9 in /  1012.8 hPa ESE 5.8 mph /  9.3 km/h 5.8 mph /  9.3 km/h 48 % 0 in /  0.0 mm
17:08 88.7 °F /  31.5 °C 66.6 °F /  19.2 °C 29.9 in /  1011.7 hPa South 10.4 mph /  16.7 km/h 10.4 mph /  16.7 km/h 48 % 0 in /  0.0 mm
17:13 88.5 °F /  31.4 °C 66.4 °F /  19.1 °C 29.9 in /  1011.7 hPa East 6.9 mph /  11.1 km/h 6.9 mph /  11.1 km/h 48 % 0 in /  0.0 mm
17:18 89.2 °F /  31.8 °C 66.9 °F /  19.4 °C 29.9 in /  1011.7 hPa SSE 4.6 mph /  7.4 km/h 4.6 mph /  7.4 km/h 48 % 0 in /  0.0 mm
17:23 90.9 °F /  32.7 °C 67.8 °F /  19.9 °C 29.9 in /  1011.7 hPa WSW 6.2 mph /  10.0 km/h 6.2 mph /  10.0 km/h 47 % 0 in /  0.0 mm
17:28 90.7 °F /  32.6 °C 67.6 °F /  19.8 °C 29.9 in /  1011.7 hPa NW 4.6 mph /  7.4 km/h 4.6 mph /  7.4 km/h 47 % 0 in /  0.0 mm
17:33 90.7 °F /  32.6 °C 67.1 °F /  19.5 °C 29.9 in /  1011.7 hPa SSW 7.8 mph /  12.6 km/h 7.8 mph /  12.6 km/h 46 % 0 in /  0.0 mm
17:38 90.1 °F /  32.3 °C 66.6 °F /  19.2 °C 29.9 in /  1011.7 hPa SSW 5.8 mph /  9.3 km/h 5.8 mph /  9.3 km/h 46 % 0 in /  0.0 mm
17:43 90 °F /  32.2 °C 66.4 °F /  19.1 °C 29.9 in /  1011.7 hPa SSW 5.8 mph /  9.3 km/h 5.8 mph /  9.3 km/h 46 % 0 in /  0.0 mm
17:48 90.5 °F /  32.5 °C 66.9 °F /  19.4 °C 29.9 in /  1011.7 hPa SW 5.9 mph /  9.5 km/h 5.9 mph /  9.5 km/h 46 % 0 in /  0.0 mm
17:53 89.2 °F /  31.8 °C 66.4 °F /  19.1 °C 29.9 in /  1011.7 hPa SSW 9.2 mph /  14.8 km/h 9.2 mph /  14.8 km/h 47 % 0 in /  0.0 mm
17:58 89.4 °F /  31.9 °C 66.6 °F /  19.2 °C 29.9 in /  1011.7 hPa WSW 6.9 mph /  11.1 km/h 6.9 mph /  11.1 km/h 47 % 0 in /  0.0 mm
18:03 89.2 °F /  31.8 °C 66.4 °F /  19.1 °C 29.9 in /  1011.7 hPa SW 6.9 mph /  11.1 km/h 6.9 mph /  11.1 km/h 47 % 0 in /  0.0 mm
18:08 88.9 °F /  31.6 °C 66 °F /  18.9 °C 29.9 in /  1011.7 hPa SSW 9.2 mph /  14.8 km/h 9.2 mph /  14.8 km/h 47 % 0 in /  0.0 mm
18:13 88.9 °F /  31.6 °C 66 °F /  18.9 °C 29.9 in /  1011.7 hPa SW 9.7 mph /  15.6 km/h 9.7 mph /  15.6 km/h 47 % 0 in /  0.0 mm
18:18 88.3 °F /  31.3 °C 65.7 °F /  18.7 °C 29.9 in /  1011.7 hPa SSE 8.1 mph /  13.0 km/h 8.1 mph /  13.0 km/h 47 % 0 in /  0.0 mm
18:23 88.3 °F /  31.3 °C 66.2 °F /  19.0 °C 29.9 in /  1011.7 hPa SSW 11.5 mph /  18.5 km/h 11.5 mph /  18.5 km/h 48 % 0 in /  0.0 mm
18:25 87.8 °F /  31.0 °C 65.7 °F /  18.7 °C 29.9 in /  1011.7 hPa SW 9.2 mph /  14.8 km/h 9.2 mph /  14.8 km/h 48 % 0 in /  0.0 mm
18:30 87.8 °F /  31.0 °C 65.7 °F /  18.7 °C 29.9 in /  1011.7 hPa WSW 3.5 mph /  5.6 km/h 3.5 mph /  5.6 km/h 48 % 0 in /  0.0 mm
18:35 88 °F /  31.1 °C 65.8 °F /  18.8 °C 29.9 in /  1011.7 hPa SSW 9.2 mph /  14.8 km/h 9.2 mph /  14.8 km/h 48 % 0 in /  0.0 mm
18:36 88 °F /  31.1 °C 65.8 °F /  18.8 °C 29.9 in /  1011.7 hPa SW 9.2 mph /  14.8 km/h 9.2 mph /  14.8 km/h 48 % 0 in /  0.0 mm
18:41 87.3 °F /  30.7 °C 65.8 °F /  18.8 °C 29.9 in /  1011.7 hPa SW 9.2 mph /  14.8 km/h 9.2 mph /  14.8 km/h 49 % 0 in /  0.0 mm
18:46 87.3 °F /  30.7 °C 66.4 °F /  19.1 °C 29.9 in /  1011.7 hPa SW 4.6 mph /  7.4 km/h 4.6 mph /  7.4 km/h 50 % 0 in /  0.0 mm
18:51 87.1 °F /  30.6 °C 66.2 °F /  19.0 °C 29.9 in /  1011.7 hPa SW 10.4 mph /  16.7 km/h 10.4 mph /  16.7 km/h 50 % 0 in /  0.0 mm
18:56 86 °F /  30.0 °C 65.1 °F /  18.4 °C 29.9 in /  1011.7 hPa SSW 9.2 mph /  14.8 km/h 9.2 mph /  14.8 km/h 50 % 0 in /  0.0 mm
19:01 86.7 °F /  30.4 °C 65.8 °F /  18.8 °C 29.9 in /  1011.7 hPa SW 5.6 mph /  9.0 km/h 5.6 mph /  9.0 km/h 50 % 0 in /  0.0 mm
19:06 86.4 °F /  30.2 °C 66 °F /  18.9 °C 29.9 in /  1011.7 hPa SW 8.1 mph /  13.0 km/h 8.1 mph /  13.0 km/h 51 % 0 in /  0.0 mm
19:11 86.4 °F /  30.2 °C 66 °F /  18.9 °C 29.9 in /  1011.7 hPa WSW 8.1 mph /  13.0 km/h 8.1 mph /  13.0 km/h 51 % 0 in /  0.0 mm
19:16 86.4 °F /  30.2 °C 66 °F /  18.9 °C 29.9 in /  1011.7 hPa SW 5.8 mph /  9.3 km/h 5.8 mph /  9.3 km/h 51 % 0 in /  0.0 mm
19:21 85.5 °F /  29.7 °C 65.8 °F /  18.8 °C 29.9 in /  1011.7 hPa SW 8.1 mph /  13.0 km/h 8.1 mph /  13.0 km/h 52 % 0 in /  0.0 mm
19:26 85.1 °F /  29.5 °C 65.5 °F /  18.6 °C 29.9 in /  1011.7 hPa SW 4.6 mph /  7.4 km/h 4.6 mph /  7.4 km/h 52 % 0 in /  0.0 mm
19:31 84.7 °F /  29.3 °C 65.7 °F /  18.7 °C 29.9 in /  1011.7 hPa SSW 8.1 mph /  13.0 km/h 8.1 mph /  13.0 km/h 53 % 0 in /  0.0 mm
19:36 84.2 °F /  29.0 °C 65.8 °F /  18.8 °C 29.9 in /  1011.7 hPa WSW 5.8 mph /  9.3 km/h 5.8 mph /  9.3 km/h 54 % 0 in /  0.0 mm
19:41 84.2 °F /  29.0 °C 65.8 °F /  18.8 °C 29.9 in /  1011.7 hPa SSW 5.8 mph /  9.3 km/h 5.8 mph /  9.3 km/h 54 % 0 in /  0.0 mm
19:46 83.7 °F /  28.7 °C 66.4 °F /  19.1 °C 29.9 in /  1011.7 hPa SW 6.2 mph /  10.0 km/h 6.2 mph /  10.0 km/h 56 % 0 in /  0.0 mm
19:51 83.3 °F /  28.5 °C 66 °F /  18.9 °C 29.9 in /  1011.7 hPa SSW 5.8 mph /  9.3 km/h 5.8 mph /  9.3 km/h 56 % 0 in /  0.0 mm
19:56 83.1 °F /  28.4 °C 66.4 °F /  19.1 °C 29.9 in /  1011.7 hPa WSW 8.1 mph /  13.0 km/h 8.1 mph /  13.0 km/h 57 % 0 in /  0.0 mm
20:01 82.9 °F /  28.3 °C 66 °F /  18.9 °C 29.9 in /  1011.7 hPa SW 5.8 mph /  9.3 km/h 5.8 mph /  9.3 km/h 57 % 0 in /  0.0 mm
20:06 82.8 °F /  28.2 °C 66.6 °F /  19.2 °C 29.9 in /  1011.7 hPa SW 8.1 mph /  13.0 km/h 8.1 mph /  13.0 km/h 58 % 0 in /  0.0 mm
20:11 82.6 °F /  28.1 °C 66.7 °F /  19.3 °C 29.8 in /  1010.7 hPa WSW 6.9 mph /  11.1 km/h 6.9 mph /  11.1 km/h 59 % 0 in /  0.0 mm
20:16 82 °F /  27.8 °C 66.4 °F /  19.1 °C 29.8 in /  1010.7 hPa West 8.1 mph /  13.0 km/h 8.1 mph /  13.0 km/h 59 % 0 in /  0.0 mm
20:21 81.9 °F /  27.7 °C 66.6 °F /  19.2 °C 29.8 in /  1010.7 hPa WSW 5.8 mph /  9.3 km/h 5.8 mph /  9.3 km/h 60 % 0 in /  0.0 mm
20:26 81.5 °F /  27.5 °C 66.7 °F /  19.3 °C 29.9 in /  1011.7 hPa South 4.6 mph /  7.4 km/h 4.6 mph /  7.4 km/h 61 % 0 in /  0.0 mm
20:31 81.3 °F /  27.4 °C 66.6 °F /  19.2 °C 29.9 in /  1011.7 hPa WSW 8.1 mph /  13.0 km/h 8.1 mph /  13.0 km/h 61 % 0 in /  0.0 mm
20:36 80.8 °F /  27.1 °C 66.6 °F /  19.2 °C 29.9 in /  1011.7 hPa SSW 4.6 mph /  7.4 km/h 4.6 mph /  7.4 km/h 62 % 0 in /  0.0 mm
20:41 80.6 °F /  27.0 °C 66.4 °F /  19.1 °C 29.9 in /  1011.7 hPa South 6.9 mph /  11.1 km/h 6.9 mph /  11.1 km/h 62 % 0 in /  0.0 mm
20:46 80.4 °F /  26.9 °C 66.7 °F /  19.3 °C 29.9 in /  1011.7 hPa SW 3.3 mph /  5.3 km/h 3.3 mph /  5.3 km/h 63 % 0 in /  0.0 mm
20:51 79.9 °F /  26.6 °C 66.6 °F /  19.2 °C 29.9 in /  1011.7 hPa SW 4.6 mph /  7.4 km/h 4.6 mph /  7.4 km/h 64 % 0 in /  0.0 mm
20:56 79.7 °F /  26.5 °C 66.9 °F /  19.4 °C 29.9 in /  1011.7 hPa WSW 4.6 mph /  7.4 km/h 4.6 mph /  7.4 km/h 65 % 0 in /  0.0 mm
21:01 79.5 °F /  26.4 °C 66.7 °F /  19.3 °C 29.9 in /  1011.7 hPa WSW 3.5 mph /  5.6 km/h 3.5 mph /  5.6 km/h 65 % 0 in /  0.0 mm
21:06 79.3 °F /  26.3 °C 66.6 °F /  19.2 °C 29.9 in /  1011.7 hPa WSW 4.3 mph /  6.9 km/h 4.3 mph /  6.9 km/h 65 % 0 in /  0.0 mm
21:11 79.2 °F /  26.2 °C 66.4 °F /  19.1 °C 29.9 in /  1012.8 hPa SSE 2.3 mph /  3.7 km/h 2.3 mph /  3.7 km/h 65 % 0 in /  0.0 mm
21:16 78.8 °F /  26.0 °C 66.6 °F /  19.2 °C 29.9 in /  1012.8 hPa WSW 2.2 mph /  3.5 km/h   66 % 0 in /  0.0 mm
21:21 78.6 °F /  25.9 °C 66.4 °F /  19.1 °C 29.9 in /  1012.8 hPa SW 2.6 mph /  4.2 km/h 2.6 mph /  4.2 km/h 66 % 0 in /  0.0 mm
21:26 78.4 °F /  25.8 °C 66 °F /  18.9 °C 29.9 in /  1012.8 hPa WSW 2.4 mph /  3.9 km/h 2.4 mph /  3.9 km/h 66 % 0 in /  0.0 mm
21:31 78.3 °F /  25.7 °C 66 °F /  18.9 °C 29.9 in /  1012.8 hPa SW 3.5 mph /  5.6 km/h 3.5 mph /  5.6 km/h 66 % 0 in /  0.0 mm
21:36 78.1 °F /  25.6 °C 66.7 °F /  19.3 °C 29.9 in /  1012.8 hPa WSW 2.3 mph /  3.7 km/h   68 % 0 in /  0.0 mm
21:41 78.1 °F /  25.6 °C 66.7 °F /  19.3 °C 29.9 in /  1013.8 hPa Calm     68 % 0 in /  0.0 mm
21:46 77.9 °F /  25.5 °C 66.6 °F /  19.2 °C 29.9 in /  1013.8 hPa ESE 1.4 mph /  2.3 km/h   68 % 0 in /  0.0 mm
21:51 77.7 °F /  25.4 °C 66.7 °F /  19.3 °C 29.9 in /  1013.8 hPa ENE 1.6 mph /  2.6 km/h 1.6 mph /  2.6 km/h 69 % 0 in /  0.0 mm
21:56 77.5 °F /  25.3 °C 66.6 °F /  19.2 °C 29.9 in /  1013.8 hPa ENE 1.2 mph /  1.9 km/h   69 % 0 in /  0.0 mm
22:01 77.5 °F /  25.3 °C 66.9 °F /  19.4 °C 29.9 in /  1013.8 hPa Calm     70 % 0 in /  0.0 mm
22:06 77.5 °F /  25.3 °C 66.9 °F /  19.4 °C 29.9 in /  1013.8 hPa ESE 4.3 mph /  6.9 km/h 4.3 mph /  6.9 km/h 70 % 0 in /  0.0 mm
22:11 77.2 °F /  25.1 °C 66.9 °F /  19.4 °C 29.9 in /  1013.8 hPa ESE 4.3 mph /  6.9 km/h 4.3 mph /  6.9 km/h 71 % 0 in /  0.0 mm
22:16 76.8 °F /  24.9 °C 67.5 °F /  19.7 °C 29.9 in /  1013.8 hPa ENE 8.1 mph /  13.0 km/h 8.1 mph /  13.0 km/h 73 % 0 in /  0.0 mm
22:21 76.6 °F /  24.8 °C 67.6 °F /  19.8 °C 29.9 in /  1013.8 hPa ESE 5.8 mph /  9.3 km/h 5.8 mph /  9.3 km/h 74 % 0 in /  0.0 mm
22:26 76.5 °F /  24.7 °C 67.6 °F /  19.8 °C 30 in /  1014.8 hPa SE 5.8 mph /  9.3 km/h 5.8 mph /  9.3 km/h 74 % 0 in /  0.0 mm
22:31 76.3 °F /  24.6 °C 67.8 °F /  19.9 °C 30 in /  1014.8 hPa East 4.6 mph /  7.4 km/h 4.6 mph /  7.4 km/h 75 % 0 in /  0.0 mm
22:36 76.3 °F /  24.6 °C 67.8 °F /  19.9 °C 30 in /  1014.8 hPa East 6.9 mph /  11.1 km/h 6.9 mph /  11.1 km/h 75 % 0 in /  0.0 mm
22:41 76.1 °F /  24.5 °C 68 °F /  20.0 °C 30 in /  1014.8 hPa ESE 4.6 mph /  7.4 km/h 4.6 mph /  7.4 km/h 76 % 0 in /  0.0 mm
22:46 76.1 °F /  24.5 °C 68 °F /  20.0 °C 30 in /  1014.8 hPa ESE 6.9 mph /  11.1 km/h 6.9 mph /  11.1 km/h 76 % 0 in /  0.0 mm
22:51 76.1 °F /  24.5 °C 68 °F /  20.0 °C 30 in /  1014.8 hPa East 3.5 mph /  5.6 km/h 3.5 mph /  5.6 km/h 76 % 0 in /  0.0 mm
22:56 75.9 °F /  24.4 °C 68.2 °F /  20.1 °C 30 in /  1014.8 hPa ENE 3.5 mph /  5.6 km/h 3.5 mph /  5.6 km/h 77 % 0 in /  0.0 mm
23:01 75.9 °F /  24.4 °C 68.2 °F /  20.1 °C 30 in /  1014.8 hPa ESE 4.6 mph /  7.4 km/h 4.6 mph /  7.4 km/h 77 % 0 in /  0.0 mm
23:06 75.9 °F /  24.4 °C 68.2 °F /  20.1 °C 30 in /  1014.8 hPa ENE 5.8 mph /  9.3 km/h 5.8 mph /  9.3 km/h 77 % 0 in /  0.0 mm
23:11 75.9 °F /  24.4 °C 68.2 °F /  20.1 °C 30 in /  1014.8 hPa ENE 6.9 mph /  11.1 km/h 6.9 mph /  11.1 km/h 77 % 0 in /  0.0 mm
23:16 75.7 °F /  24.3 °C 68.4 °F /  20.2 °C 30 in /  1014.8 hPa NNE 7.1 mph /  11.4 km/h 7.1 mph /  11.4 km/h 78 % 0 in /  0.0 mm
23:21 75.7 °F /  24.3 °C 68 °F /  20.0 °C 30 in /  1014.8 hPa ENE 5.8 mph /  9.3 km/h 5.8 mph /  9.3 km/h 77 % 0 in /  0.0 mm
23:26 75.6 °F /  24.2 °C 68.2 °F /  20.1 °C 30 in /  1014.8 hPa NE 4.6 mph /  7.4 km/h 4.6 mph /  7.4 km/h 78 % 0 in /  0.0 mm
23:31 75.6 °F /  24.2 °C 68.2 °F /  20.1 °C 30 in /  1014.8 hPa ESE 4.6 mph /  7.4 km/h 4.6 mph /  7.4 km/h 78 % 0 in /  0.0 mm
23:36 75.6 °F /  24.2 °C 68.5 °F /  20.3 °C 30 in /  1014.8 hPa ESE 4.6 mph /  7.4 km/h 4.6 mph /  7.4 km/h 79 % 0 in /  0.0 mm
23:41 75.6 °F /  24.2 °C 68.5 °F /  20.3 °C 30 in /  1015.8 hPa ENE 3.5 mph /  5.6 km/h 3.5 mph /  5.6 km/h 79 % 0 in /  0.0 mm
23:46 75.6 °F /  24.2 °C 68.5 °F /  20.3 °C 30 in /  1015.8 hPa East 3.5 mph /  5.6 km/h 3.5 mph /  5.6 km/h 79 % 0 in /  0.0 mm
23:51 75.6 °F /  24.2 °C 68.5 °F /  20.3 °C 30 in /  1015.8 hPa East 5.8 mph /  9.3 km/h 5.8 mph /  9.3 km/h 79 % 0 in /  0.0 mm
23:56 75.4 °F /  24.1 °C 68.7 °F /  20.4 °C 30 in /  1015.8 hPa ENE 5.8 mph /  9.3 km/h 5.8 mph /  9.3 km/h 80 % 0 in /  0.0 mm
Meteo Sesrovires
Elogis d' Weather Underground - 3.5 mb

Guio original per  Jim McMurry - jmcmurry@mwt.net Adaptat per a la plantilla per  Wim van der Kuil - Leuven-Template.eu

Trobareu la nostra informacio del temps tambe a:

Weather Underground

AWEKAS